createdAt,value
2018-04-15T00:01:48.925Z,11.51
2018-04-15T00:04:17.317Z,11.55
2018-04-15T00:06:45.686Z,11.50
2018-04-15T00:09:14.021Z,11.57
2018-04-15T00:11:42.338Z,11.73
2018-04-15T00:14:10.684Z,11.73
2018-04-15T00:16:38.999Z,11.39
2018-04-15T00:19:07.344Z,11.20
2018-04-15T00:21:35.655Z,11.03
2018-04-15T00:24:03.985Z,11.13
2018-04-15T00:26:32.421Z,11.09
2018-04-15T00:29:00.778Z,11.00
2018-04-15T00:31:29.166Z,10.91
2018-04-15T00:33:57.505Z,10.67
2018-04-15T00:36:25.823Z,10.67
2018-04-15T00:38:54.197Z,10.73
2018-04-15T00:41:22.532Z,10.75
2018-04-15T00:43:50.832Z,10.90
2018-04-15T00:46:19.177Z,11.06
2018-04-15T00:48:47.508Z,11.13
2018-04-15T00:51:15.837Z,10.99
2018-04-15T00:53:56.002Z,10.93
2018-04-15T00:56:24.424Z,10.89
2018-04-15T00:58:52.803Z,10.92
2018-04-15T01:01:21.146Z,10.78
2018-04-15T01:03:49.465Z,10.47
2018-04-15T01:06:17.829Z,10.34
2018-04-15T01:08:46.151Z,10.48
2018-04-15T01:11:14.587Z,10.56
2018-04-15T01:13:42.969Z,10.61
2018-04-15T01:16:11.341Z,10.24
2018-04-15T01:18:39.659Z,10.28
2018-04-15T01:21:08.089Z,10.29
2018-04-15T01:23:36.397Z,10.36
2018-04-15T01:26:04.753Z,10.60
2018-04-15T01:28:33.129Z,10.55
2018-04-15T01:31:01.458Z,10.43
2018-04-15T01:33:29.886Z,10.23
2018-04-15T01:35:58.201Z,10.19
2018-04-15T01:38:26.537Z,10.24
2018-04-15T01:40:54.913Z,10.44
2018-04-15T01:43:23.293Z,10.45
2018-04-15T01:45:51.665Z,10.40
2018-04-15T01:48:20.128Z,10.37
2018-04-15T01:50:48.524Z,10.31
2018-04-15T01:53:16.872Z,10.00
2018-04-15T01:55:45.188Z,9.92
2018-04-15T01:58:14.482Z,9.81
2018-04-15T02:00:42.794Z,10.17
2018-04-15T02:03:11.145Z,10.23
2018-04-15T02:05:39.538Z,10.26
2018-04-15T02:08:07.896Z,10.33
2018-04-15T02:10:37.162Z,10.07
2018-04-15T02:13:05.492Z,10.15
2018-04-15T02:15:33.853Z,10.31
2018-04-15T02:18:02.196Z,10.32
2018-04-15T02:20:30.509Z,10.02
2018-04-15T02:22:58.814Z,9.87
2018-04-15T02:25:27.141Z,9.81
2018-04-15T02:27:56.462Z,9.77
2018-04-15T02:30:24.800Z,9.80
2018-04-15T02:32:53.139Z,9.89
2018-04-15T02:35:21.449Z,9.72
2018-04-15T02:37:49.869Z,9.70
2018-04-15T02:40:18.257Z,9.73
2018-04-15T02:42:46.558Z,9.81
2018-04-15T02:45:14.894Z,9.87
2018-04-15T02:47:43.209Z,10.08
2018-04-15T02:50:11.549Z,10.14
2018-04-15T02:52:39.856Z,10.06
2018-04-15T02:55:08.194Z,9.75
2018-04-15T02:57:36.501Z,9.56
2018-04-15T03:00:04.855Z,9.38
2018-04-15T03:02:33.159Z,9.64
2018-04-15T03:05:01.525Z,9.23
2018-04-15T03:07:29.839Z,9.28
2018-04-15T03:09:58.459Z,9.49
2018-04-15T03:12:26.772Z,9.47
2018-04-15T03:14:55.113Z,9.35
2018-04-15T03:17:23.520Z,9.23
2018-04-15T03:19:51.830Z,9.20
2018-04-15T03:22:20.172Z,9.21
2018-04-15T03:24:48.469Z,9.38
2018-04-15T03:27:16.806Z,9.05
2018-04-15T03:29:45.125Z,9.00
2018-04-15T03:32:13.522Z,8.96
2018-04-15T03:34:41.817Z,9.13
2018-04-15T03:37:10.225Z,9.39
2018-04-15T03:39:38.614Z,9.40
2018-04-15T03:42:06.989Z,9.32
2018-04-15T03:44:35.294Z,9.31
2018-04-15T03:47:03.691Z,9.14
2018-04-15T03:49:31.995Z,9.05
2018-04-15T03:52:00.323Z,9.05
2018-04-15T03:54:28.681Z,9.13
2018-04-15T03:56:57.046Z,8.98
2018-04-15T03:59:25.450Z,8.93
2018-04-15T04:01:53.742Z,9.23
2018-04-15T04:04:22.075Z,9.40
2018-04-15T04:06:50.365Z,9.29
2018-04-15T04:09:18.891Z,9.33
2018-04-15T04:11:47.220Z,9.43
2018-04-15T04:14:15.559Z,9.36
2018-04-15T04:16:43.880Z,9.57
2018-04-15T04:19:24.138Z,9.56
2018-04-15T04:22:04.500Z,9.55
2018-04-15T04:24:44.649Z,9.42
2018-04-15T04:27:13.027Z,9.03
2018-04-15T04:29:41.373Z,9.24
2018-04-15T04:32:09.676Z,9.18
2018-04-15T04:34:38.037Z,9.14
2018-04-15T04:37:06.333Z,9.14
2018-04-15T04:39:34.680Z,9.27
2018-04-15T04:42:03.121Z,9.29
2018-04-15T04:44:31.467Z,9.05
2018-04-15T04:46:59.805Z,8.99
2018-04-15T04:49:28.141Z,9.06
2018-04-15T04:51:56.474Z,9.02
2018-04-15T04:54:24.764Z,9.10
2018-04-15T04:56:53.100Z,9.02
2018-04-15T04:59:21.410Z,8.95
2018-04-15T05:01:49.810Z,8.95
2018-04-15T05:04:18.121Z,9.04
2018-04-15T05:06:46.449Z,9.02
2018-04-15T05:09:15.026Z,9.07
2018-04-15T05:11:43.338Z,9.10
2018-04-15T05:14:11.652Z,9.21
2018-04-15T05:16:40.084Z,9.31
2018-04-15T05:19:08.461Z,9.20
2018-04-15T05:21:36.840Z,9.18
2018-04-15T05:24:05.220Z,9.18
2018-04-15T05:26:33.719Z,9.29
2018-04-15T05:29:02.080Z,9.34
2018-04-15T05:31:30.395Z,9.41
2018-04-15T05:33:58.838Z,9.52
2018-04-15T05:36:27.140Z,9.57
2018-04-15T05:38:55.491Z,9.75
2018-04-15T05:41:23.811Z,9.90
2018-04-15T05:43:52.146Z,9.86
2018-04-15T05:46:20.528Z,9.74
2018-04-15T05:48:48.885Z,9.70
2018-04-15T05:51:17.197Z,9.77
2018-04-15T05:53:45.513Z,9.94
2018-04-15T05:56:14.826Z,9.87
2018-04-15T05:58:43.149Z,9.97
2018-04-15T06:01:11.473Z,10.26
2018-04-15T06:03:39.817Z,10.24
2018-04-15T06:06:08.133Z,10.14
2018-04-15T06:08:36.533Z,10.08
2018-04-15T06:11:04.928Z,10.27
2018-04-15T06:13:33.265Z,10.37
2018-04-15T06:16:01.756Z,10.59
2018-04-15T06:18:30.168Z,10.29
2018-04-15T06:20:58.547Z,10.46
2018-04-15T06:23:26.874Z,10.67
2018-04-15T06:25:55.418Z,10.93
2018-04-15T06:28:23.808Z,10.84
2018-04-15T06:30:52.160Z,11.05
2018-04-15T06:33:20.556Z,10.84
2018-04-15T06:35:48.885Z,11.04
2018-04-15T06:38:17.201Z,11.14
2018-04-15T06:40:45.542Z,11.34
2018-04-15T06:43:13.854Z,11.07
2018-04-15T06:45:42.188Z,11.51
2018-04-15T06:48:10.504Z,11.41
2018-04-15T06:50:38.878Z,11.65
2018-04-15T06:53:07.188Z,11.68
2018-04-15T06:55:35.531Z,11.91
2018-04-15T06:58:03.841Z,11.78
2018-04-15T07:00:32.281Z,12.15
2018-04-15T07:03:00.593Z,11.99
2018-04-15T07:05:28.907Z,11.91
2018-04-15T07:07:57.245Z,11.75
2018-04-15T07:10:25.559Z,12.23
2018-04-15T07:12:53.965Z,12.47
2018-04-15T07:15:22.276Z,12.65
2018-04-15T07:17:50.629Z,12.79
2018-04-15T07:20:18.957Z,12.39
2018-04-15T07:22:47.276Z,12.50
2018-04-15T07:25:15.654Z,12.87
2018-04-15T07:27:44.035Z,12.73
2018-04-15T07:30:12.424Z,13.17
2018-04-15T07:32:40.794Z,13.22
2018-04-15T07:35:09.106Z,13.16
2018-04-15T07:37:37.760Z,13.27
2018-04-15T07:40:06.132Z,13.65
2018-04-15T07:42:34.517Z,13.84
2018-04-15T07:45:02.886Z,13.50
2018-04-15T07:47:31.225Z,13.65
2018-04-15T07:49:59.543Z,13.92
2018-04-15T07:52:27.917Z,14.10
2018-04-15T07:54:56.248Z,14.14
2018-04-15T07:57:24.581Z,14.12
2018-04-15T07:59:52.949Z,13.88
2018-04-15T08:02:21.398Z,13.95
2018-04-15T08:04:49.673Z,14.52
2018-04-15T08:07:17.981Z,14.56
2018-04-15T08:09:46.385Z,14.92
2018-04-15T08:12:14.700Z,15.05
2018-04-15T08:14:43.041Z,15.10
2018-04-15T08:17:11.455Z,15.07
2018-04-15T08:19:39.876Z,15.42
2018-04-15T08:22:08.200Z,15.40
2018-04-15T08:24:36.546Z,15.66
2018-04-15T08:27:04.936Z,15.09
2018-04-15T08:29:33.273Z,15.32
2018-04-15T08:32:01.634Z,15.53
2018-04-15T08:34:30.041Z,15.79
2018-04-15T08:36:58.429Z,15.51
2018-04-15T08:39:26.757Z,15.45
2018-04-15T08:41:55.085Z,15.92
2018-04-15T08:44:23.425Z,15.67
2018-04-15T08:46:51.745Z,15.81
2018-04-15T08:49:20.117Z,15.09
2018-04-15T08:51:48.457Z,15.55
2018-04-15T08:54:16.870Z,15.77
2018-04-15T08:56:45.248Z,15.85
2018-04-15T08:59:13.625Z,15.33
2018-04-15T09:01:41.978Z,15.48
2018-04-15T09:04:10.316Z,16.14
2018-04-15T09:06:38.661Z,16.46
2018-04-15T09:09:07.090Z,16.23
2018-04-15T09:11:35.414Z,16.14
2018-04-15T09:14:03.736Z,16.47
2018-04-15T09:16:32.072Z,16.03
2018-04-15T09:19:00.388Z,16.25
2018-04-15T09:21:28.750Z,16.53
2018-04-15T09:23:57.142Z,16.42
2018-04-15T09:26:25.630Z,16.75
2018-04-15T09:28:53.941Z,16.27
2018-04-15T09:31:22.289Z,16.31
2018-04-15T09:33:50.609Z,16.97
2018-04-15T09:36:18.944Z,17.23
2018-04-15T09:38:47.261Z,16.90
2018-04-15T09:41:15.601Z,17.21
2018-04-15T09:43:43.974Z,17.38
2018-04-15T09:46:12.274Z,17.14
2018-04-15T09:48:40.613Z,17.07
2018-04-15T09:51:11.091Z,17.29
2018-04-15T09:53:39.449Z,17.23
2018-04-15T09:56:07.779Z,17.32
2018-04-15T09:58:36.121Z,17.58
2018-04-15T10:01:04.430Z,17.99
2018-04-15T10:03:32.845Z,18.21
2018-04-15T10:06:01.217Z,18.26
2018-04-15T10:08:29.548Z,18.40
2018-04-15T10:10:57.917Z,18.56
2018-04-15T10:13:26.198Z,19.13
2018-04-15T10:15:54.504Z,19.44
2018-04-15T10:18:22.873Z,19.52
2018-04-15T10:20:51.277Z,19.44
2018-04-15T10:23:19.606Z,19.07
2018-04-15T10:25:47.917Z,19.72
2018-04-15T10:28:16.242Z,19.00
2018-04-15T10:30:44.570Z,19.62
2018-04-15T10:33:12.936Z,19.28
2018-04-15T10:35:41.259Z,19.57
2018-04-15T10:38:09.677Z,19.02
2018-04-15T10:40:38.060Z,18.76
2018-04-15T10:43:06.376Z,18.79
2018-04-15T10:45:34.820Z,19.22
2018-04-15T10:48:03.137Z,19.52
2018-04-15T10:50:31.491Z,19.77
2018-04-15T10:52:59.808Z,19.76
2018-04-15T10:55:28.183Z,20.01
2018-04-15T10:57:56.483Z,20.39
2018-04-15T11:00:24.892Z,20.93
2018-04-15T11:02:53.268Z,20.74
2018-04-15T11:05:21.606Z,20.43
2018-04-15T11:07:49.959Z,20.26
2018-04-15T11:10:18.438Z,19.97
2018-04-15T11:12:46.787Z,20.14
2018-04-15T11:15:15.171Z,20.03
2018-04-15T11:17:43.477Z,19.98
2018-04-15T11:20:11.905Z,19.83
2018-04-15T11:22:40.217Z,19.69
2018-04-15T11:25:08.677Z,19.87
2018-04-15T11:27:37.088Z,19.91
2018-04-15T11:30:05.733Z,19.42
2018-04-15T11:32:34.147Z,19.74
2018-04-15T11:35:02.484Z,19.37
2018-04-15T11:37:30.816Z,19.34
2018-04-15T11:39:59.251Z,19.18
2018-04-15T11:42:27.607Z,19.59
2018-04-15T11:44:55.929Z,19.55
2018-04-15T11:47:24.269Z,19.67
2018-04-15T11:49:52.581Z,19.73
2018-04-15T11:52:21.025Z,19.95
2018-04-15T11:54:49.519Z,20.21
2018-04-15T11:57:17.851Z,20.81
2018-04-15T11:59:46.164Z,21.22
2018-04-15T12:02:14.531Z,21.60
2018-04-15T12:04:43.184Z,21.47
2018-04-15T12:07:11.604Z,21.93
2018-04-15T12:09:39.912Z,22.27
2018-04-15T12:12:08.298Z,22.65
2018-04-15T12:14:36.634Z,22.44
2018-04-15T12:17:05.022Z,22.68
2018-04-15T12:19:33.362Z,22.31
2018-04-15T12:22:01.818Z,22.10
2018-04-15T12:24:30.148Z,21.63
2018-04-15T12:26:58.492Z,21.41
2018-04-15T12:29:26.912Z,21.35
2018-04-15T12:31:55.233Z,21.44
2018-04-15T12:34:23.567Z,21.31
2018-04-15T12:36:51.873Z,21.46
2018-04-15T12:39:20.192Z,21.20
2018-04-15T12:41:48.589Z,21.31
2018-04-15T12:44:17.002Z,22.11
2018-04-15T12:46:45.356Z,22.68
2018-04-15T12:49:13.670Z,23.05
2018-04-15T12:51:42.116Z,23.62
2018-04-15T12:54:10.429Z,23.98
2018-04-15T12:56:38.768Z,24.20
2018-04-15T12:59:07.090Z,24.46
2018-04-15T13:01:35.427Z,24.73
2018-04-15T13:04:03.749Z,24.03
2018-04-15T13:06:32.081Z,23.25
2018-04-15T13:09:00.408Z,22.51
2018-04-15T13:11:28.739Z,22.28
2018-04-15T13:13:57.057Z,22.68
2018-04-15T13:16:25.492Z,22.63
2018-04-15T13:18:53.810Z,21.98
2018-04-15T13:21:22.150Z,21.98
2018-04-15T13:23:50.470Z,21.79
2018-04-15T13:26:18.823Z,21.71
2018-04-15T13:28:47.168Z,21.84
2018-04-15T13:31:15.485Z,22.02
2018-04-15T13:33:43.845Z,21.91
2018-04-15T13:36:12.165Z,21.60
2018-04-15T13:38:40.500Z,21.93
2018-04-15T13:41:08.829Z,21.72
2018-04-15T13:43:37.281Z,21.88
2018-04-15T13:46:05.620Z,22.00
2018-04-15T13:48:33.948Z,21.60
2018-04-15T13:51:02.380Z,21.97
2018-04-15T13:53:30.781Z,21.83
2018-04-15T13:55:59.098Z,21.63
2018-04-15T13:58:27.436Z,21.38
2018-04-15T14:00:55.786Z,21.42
2018-04-15T14:03:24.130Z,21.34
2018-04-15T14:05:52.549Z,21.58
2018-04-15T14:08:21.038Z,21.34
2018-04-15T14:10:49.381Z,21.17
2018-04-15T14:13:17.781Z,21.01
2018-04-15T14:15:46.121Z,20.89
2018-04-15T14:18:14.454Z,20.83
2018-04-15T14:20:42.914Z,20.70
2018-04-15T14:23:11.289Z,20.57
2018-04-15T14:25:39.721Z,20.61
2018-04-15T14:28:08.026Z,20.63
2018-04-15T14:30:36.369Z,20.51
2018-04-15T14:33:04.720Z,20.47
2018-04-15T14:35:33.064Z,20.53
2018-04-15T14:38:01.378Z,20.51
2018-04-15T14:40:29.726Z,20.39
2018-04-15T14:42:58.056Z,20.51
2018-04-15T14:45:26.494Z,20.58
2018-04-15T14:47:54.795Z,20.29
2018-04-15T14:50:23.254Z,20.44
2018-04-15T14:52:51.617Z,20.66
2018-04-15T14:55:19.961Z,20.44
2018-04-15T14:57:48.283Z,20.24
2018-04-15T15:00:16.636Z,20.24
2018-04-15T15:02:44.949Z,20.37
2018-04-15T15:05:13.268Z,20.45
2018-04-15T15:07:41.600Z,20.10
2018-04-15T15:10:09.912Z,20.13
2018-04-15T15:12:38.264Z,19.80
2018-04-15T15:15:06.571Z,19.74
2018-04-15T15:17:34.937Z,19.76
2018-04-15T15:20:03.246Z,19.69
2018-04-15T15:22:31.584Z,19.60
2018-04-15T15:24:59.933Z,19.57
2018-04-15T15:27:28.298Z,19.45
2018-04-15T15:29:56.693Z,19.52
2018-04-15T15:32:25.038Z,19.51
2018-04-15T15:34:53.456Z,19.66
2018-04-15T15:37:21.833Z,19.64
2018-04-15T15:39:50.138Z,19.52
2018-04-15T15:42:18.581Z,19.50
2018-04-15T15:44:46.896Z,19.51
2018-04-15T15:47:15.327Z,19.44
2018-04-15T15:49:43.647Z,19.36
2018-04-15T15:52:11.989Z,19.29
2018-04-15T15:54:40.328Z,19.26
2018-04-15T15:57:08.754Z,19.19
2018-04-15T15:59:37.126Z,19.12
2018-04-15T16:02:05.494Z,19.02
2018-04-15T16:04:33.920Z,18.87
2018-04-15T16:07:02.270Z,18.83
2018-04-15T16:09:30.593Z,18.69
2018-04-15T16:11:59.013Z,18.66
2018-04-15T16:14:27.397Z,18.59
2018-04-15T16:16:55.715Z,18.57
2018-04-15T16:19:24.090Z,18.61
2018-04-15T16:21:52.389Z,18.55
2018-04-15T16:24:20.798Z,18.61
2018-04-15T16:26:49.109Z,18.49
2018-04-15T16:29:17.603Z,18.53
2018-04-15T16:31:45.950Z,18.38
2018-04-15T16:34:14.349Z,18.40
2018-04-15T16:36:42.668Z,18.35
2018-04-15T16:39:11.008Z,18.33
2018-04-15T16:41:39.412Z,18.32
2018-04-15T16:44:07.746Z,18.30
2018-04-15T16:46:36.072Z,18.23
2018-04-15T16:49:04.495Z,18.18
2018-04-15T16:51:32.813Z,18.17
2018-04-15T16:54:01.158Z,18.16
2018-04-15T16:56:29.465Z,18.16
2018-04-15T16:58:57.785Z,17.98
2018-04-15T17:01:26.214Z,18.00
2018-04-15T17:03:54.536Z,18.02
2018-04-15T17:06:22.863Z,18.03
2018-04-15T17:08:51.210Z,18.02
2018-04-15T17:11:19.572Z,18.03
2018-04-15T17:13:47.877Z,18.01
2018-04-15T17:16:16.253Z,17.97
2018-04-15T17:18:44.614Z,18.00
2018-04-15T17:21:13.009Z,17.96
2018-04-15T17:23:41.415Z,17.88
2018-04-15T17:26:09.718Z,17.81
2018-04-15T17:28:38.044Z,17.81
2018-04-15T17:31:06.416Z,17.76
2018-04-15T17:33:34.793Z,17.80
2018-04-15T17:36:03.114Z,17.77
2018-04-15T17:38:32.436Z,17.76
2018-04-15T17:41:00.755Z,17.61
2018-04-15T17:43:29.112Z,17.62
2018-04-15T17:45:57.479Z,17.53
2018-04-15T17:48:25.782Z,17.49
2018-04-15T17:50:54.112Z,17.44
2018-04-15T17:53:22.437Z,17.35
2018-04-15T17:55:50.768Z,17.24
2018-04-15T17:58:19.103Z,17.21
2018-04-15T18:00:47.495Z,17.23
2018-04-15T18:03:15.845Z,17.20
2018-04-15T18:05:44.145Z,17.16
2018-04-15T18:08:12.481Z,17.17
2018-04-15T18:10:40.797Z,17.33
2018-04-15T18:13:09.140Z,17.32
2018-04-15T18:15:37.460Z,17.24
2018-04-15T18:18:05.808Z,17.22
2018-04-15T18:20:34.223Z,17.23
2018-04-15T18:23:02.557Z,17.24
2018-04-15T18:25:30.868Z,17.15
2018-04-15T18:27:59.206Z,17.12
2018-04-15T18:30:27.527Z,17.02
2018-04-15T18:32:55.862Z,16.99
2018-04-15T18:35:24.193Z,17.05
2018-04-15T18:37:52.526Z,17.05
2018-04-15T18:40:20.907Z,17.03
2018-04-15T18:42:49.254Z,16.84
2018-04-15T18:45:17.600Z,16.89
2018-04-15T18:47:45.970Z,16.83
2018-04-15T18:50:14.340Z,16.86
2018-04-15T18:52:42.708Z,16.87
2018-04-15T18:55:11.040Z,16.58
2018-04-15T18:57:39.350Z,16.66
2018-04-15T19:00:07.714Z,16.68
2018-04-15T19:02:36.041Z,16.66
2018-04-15T19:05:04.373Z,16.65
2018-04-15T19:07:32.763Z,16.62
2018-04-15T19:10:01.105Z,16.59
2018-04-15T19:12:29.505Z,16.57
2018-04-15T19:14:57.893Z,16.56
2018-04-15T19:17:26.213Z,16.47
2018-04-15T19:19:54.548Z,16.50
2018-04-15T19:22:22.889Z,16.46
2018-04-15T19:24:51.234Z,16.34
2018-04-15T19:27:19.534Z,16.45
2018-04-15T19:29:47.871Z,16.46
2018-04-15T19:32:16.200Z,16.23
2018-04-15T19:34:44.531Z,16.26
2018-04-15T19:37:12.920Z,16.32
2018-04-15T19:39:41.270Z,16.29
2018-04-15T19:42:09.596Z,16.28
2018-04-15T19:44:37.918Z,16.20
2018-04-15T19:47:06.282Z,16.12
2018-04-15T19:49:34.677Z,16.19
2018-04-15T19:52:03.003Z,16.06
2018-04-15T19:54:31.432Z,16.02
2018-04-15T19:56:59.817Z,16.06
2018-04-15T19:59:28.161Z,16.06
2018-04-15T20:01:56.478Z,16.09
2018-04-15T20:04:24.838Z,16.09
2018-04-15T20:06:53.227Z,16.13
2018-04-15T20:09:21.570Z,16.16
2018-04-15T20:11:49.923Z,16.06
2018-04-15T20:14:18.382Z,15.96
2018-04-15T20:16:46.734Z,16.07
2018-04-15T20:19:15.083Z,16.06
2018-04-15T20:21:43.405Z,15.99
2018-04-15T20:24:11.750Z,15.97
2018-04-15T20:26:40.133Z,16.03
2018-04-15T20:29:08.513Z,15.83
2018-04-15T20:31:36.843Z,16.00
2018-04-15T20:34:05.187Z,15.91
2018-04-15T20:36:33.513Z,15.97
2018-04-15T20:39:01.856Z,16.06
2018-04-15T20:41:30.206Z,15.74
2018-04-15T20:43:58.564Z,15.75
2018-04-15T20:46:26.884Z,15.76
2018-04-15T20:48:55.222Z,15.58
2018-04-15T20:51:23.550Z,15.45
2018-04-15T20:53:51.876Z,15.34
2018-04-15T20:56:20.275Z,15.42
2018-04-15T20:58:48.633Z,15.33
2018-04-15T21:01:17.029Z,15.52
2018-04-15T21:03:45.297Z,15.61
2018-04-15T21:06:13.645Z,15.57
2018-04-15T21:08:41.976Z,15.60
2018-04-15T21:11:10.339Z,15.58
2018-04-15T21:13:38.686Z,15.59
2018-04-15T21:16:07.035Z,15.55
2018-04-15T21:18:35.368Z,15.55
2018-04-15T21:21:03.722Z,15.44
2018-04-15T21:23:32.056Z,15.48
2018-04-15T21:26:00.396Z,15.42
2018-04-15T21:28:28.742Z,15.26
2018-04-15T21:30:57.094Z,15.34
2018-04-15T21:33:25.442Z,15.39
2018-04-15T21:35:53.784Z,15.27
2018-04-15T21:38:22.155Z,15.39
2018-04-15T21:40:50.561Z,15.36
2018-04-15T21:43:18.885Z,15.24
2018-04-15T21:45:47.321Z,15.32
2018-04-15T21:48:15.648Z,15.37
2018-04-15T21:50:43.985Z,15.40
2018-04-15T21:53:12.320Z,15.30
2018-04-15T21:55:40.686Z,15.41
2018-04-15T21:58:09.112Z,15.35
2018-04-15T22:00:37.440Z,15.22
2018-04-15T22:03:05.789Z,15.27
2018-04-15T22:05:34.113Z,15.24
2018-04-15T22:08:02.530Z,15.05
2018-04-15T22:10:30.850Z,15.01
2018-04-15T22:13:08.200Z,14.96
2018-04-15T22:15:36.568Z,14.95
2018-04-15T22:18:04.953Z,15.01
2018-04-15T22:20:33.333Z,15.20
2018-04-15T22:23:01.684Z,15.03
2018-04-15T22:25:30.024Z,15.02
2018-04-15T22:27:58.361Z,15.01
2018-04-15T22:30:26.697Z,14.92
2018-04-15T22:32:55.034Z,14.85
2018-04-15T22:35:23.397Z,14.85
2018-04-15T22:37:51.734Z,14.96
2018-04-15T22:40:20.062Z,14.76
2018-04-15T22:42:48.405Z,14.75
2018-04-15T22:45:16.809Z,14.72
2018-04-15T22:47:50.949Z,14.80
2018-04-15T22:50:19.297Z,14.70
2018-04-15T22:52:47.636Z,14.75
2018-04-15T22:55:15.968Z,14.74
2018-04-15T22:57:44.328Z,14.62
2018-04-15T23:00:12.661Z,14.42
2018-04-15T23:02:41.109Z,14.49
2018-04-15T23:05:09.461Z,14.66
2018-04-15T23:07:38.263Z,14.56
2018-04-15T23:10:06.621Z,14.67
2018-04-15T23:12:34.995Z,14.47
2018-04-15T23:15:03.387Z,14.59
2018-04-15T23:17:31.756Z,14.58
2018-04-15T23:20:00.109Z,14.54
2018-04-15T23:22:28.425Z,14.56
2018-04-15T23:24:56.799Z,14.52
2018-04-15T23:27:25.129Z,14.63
2018-04-15T23:29:53.488Z,14.60
2018-04-15T23:32:21.827Z,14.58
2018-04-15T23:34:50.164Z,14.40
2018-04-15T23:37:18.497Z,14.38
2018-04-15T23:39:46.832Z,14.49
2018-04-15T23:42:15.168Z,14.51
2018-04-15T23:44:43.579Z,14.56
2018-04-15T23:47:11.888Z,14.45
2018-04-15T23:49:40.236Z,14.42
2018-04-15T23:52:08.654Z,14.41
2018-04-15T23:54:37.036Z,14.33
2018-04-15T23:57:05.386Z,14.25
2018-04-15T23:59:33.733Z,14.39
